Time;durP1;ratioP1;P1;durP2;ratioP2;P2;SDS_P1;SDS_P2;PMS_P1;PMS_P2;Temp;Humidity;BMP_temperature;BMP_pressure;BME280_temperature;BME280_humidity;BME280_pressure;Samples;Min_cycle;Max_cycle;Signal;HPM_P1;HPM_P2
2022/07/28 00:01:03;;;;;;;3.42;2.90;;;;;;;31.02;43.48;96461.56;5094497;28;20107;-28
2022/07/28 00:03:28;;;;;;;4.18;2.80;;;;;;;31.07;43.24;96463.41;5094229;28;20030;-30
2022/07/28 00:05:54;;;;;;;3.85;3.05;;;;;;;31.00;43.32;96461.38;5094453;28;20495;-28
2022/07/28 00:08:19;;;;;;;4.28;3.00;;;;;;;31.01;42.81;96448.84;5094526;28;20032;-28
2022/07/28 00:10:44;;;;;;;5.95;2.95;;;;;;;31.02;42.65;96450.34;5094003;28;20075;-28
2022/07/28 00:13:10;;;;;;;3.20;2.88;;;;;;;31.07;42.89;96451.44;5094379;28;20089;-28
2022/07/28 00:15:35;;;;;;;5.50;2.90;;;;;;;31.02;42.82;96455.22;5094336;28;20026;-28
2022/07/28 00:18:01;;;;;;;7.65;3.00;;;;;;;31.14;42.56;96455.59;5094025;28;20382;-28
2022/07/28 00:20:26;;;;;;;4.15;3.33;;;;;;;31.15;42.54;96454.28;5094047;28;20027;-28
2022/07/28 00:22:52;;;;;;;4.38;2.78;;;;;;;31.10;42.63;96455.22;5093975;28;20032;-27
2022/07/28 00:25:17;;;;;;;4.30;2.92;;;;;;;31.07;42.65;96452.19;5093941;28;20027;-29
2022/07/28 00:27:43;;;;;;;4.88;3.30;;;;;;;31.06;42.45;96456.31;5094121;28;20024;-28
2022/07/28 00:30:09;;;;;;;3.28;2.50;;;;;;;30.97;42.57;96453.34;5093845;28;20020;-28
2022/07/28 00:32:34;;;;;;;3.75;2.72;;;;;;;31.02;42.18;96460.81;5093999;28;20059;-28
2022/07/28 00:35:00;;;;;;;4.03;2.70;;;;;;;31.13;41.85;96465.28;5094002;28;20031;-28
2022/07/28 00:37:26;;;;;;;4.45;3.00;;;;;;;31.08;42.05;96459.28;5093744;28;20065;-28
2022/07/28 00:39:51;;;;;;;4.68;2.97;;;;;;;31.03;42.01;96457.41;5093776;28;20043;-28
2022/07/28 00:42:18;;;;;;;5.43;3.08;;;;;;;30.97;41.92;96459.69;5093708;28;20063;-28
2022/07/28 00:44:43;;;;;;;3.92;3.00;;;;;;;30.94;41.96;96451.66;5093602;28;20522;-28
2022/07/28 00:47:10;;;;;;;4.85;3.10;;;;;;;30.97;42.21;96448.47;5093576;28;20024;-28
2022/07/28 00:49:36;;;;;;;3.30;2.78;;;;;;;31.00;41.71;96455.78;5093792;28;20027;-28
2022/07/28 00:52:04;;;;;;;6.45;3.05;;;;;;;31.00;42.02;96452.97;5093528;28;20024;-27
2022/07/28 00:54:31;;;;;;;4.28;2.80;;;;;;;31.06;41.98;96449.94;5093972;28;20370;-28
2022/07/28 00:56:57;;;;;;;3.40;2.75;;;;;;;30.95;41.69;96453.91;5093517;28;20036;-28
2022/07/28 00:59:22;;;;;;;4.20;2.70;;;;;;;30.91;41.96;96458.41;5093396;28;20031;-28
2022/07/28 01:01:48;;;;;;;4.18;3.00;;;;;;;31.10;41.08;96444.75;5093468;28;20082;-29
2022/07/28 01:04:14;;;;;;;3.72;2.95;;;;;;;31.03;40.99;96449.03;5093115;28;20031;-29
2022/07/28 01:06:53;;;;;;;5.80;2.67;;;;;;;31.12;40.74;96442.13;5093346;28;20024;-28
2022/07/28 01:09:28;;;;;;;5.40;3.15;;;;;;;31.11;40.67;96437.09;5093201;28;20048;-28
2022/07/28 01:12:01;;;;;;;4.47;2.70;;;;;;;31.09;40.61;96443.25;5093464;28;20027;-28
2022/07/28 01:14:37;;;;;;;4.25;2.85;;;;;;;31.10;40.48;96439.16;5093436;28;20021;-29
2022/07/28 01:17:10;;;;;;;4.13;2.88;;;;;;;31.12;40.27;96441.38;5093562;28;20024;-28
2022/07/28 01:19:47;;;;;;;3.47;2.75;;;;;;;31.19;40.26;96446.97;5093342;28;20028;-28
2022/07/28 01:22:21;;;;;;;3.85;2.85;;;;;;;31.08;39.86;96439.69;5093283;28;20493;-28
2022/07/28 01:25:23;;;;;;;4.85;2.70;;;;;;;31.11;40.20;96439.91;5093461;28;20058;-28
2022/07/28 01:27:57;;;;;;;4.47;2.53;;;;;;;31.15;39.63;96437.47;5093144;28;20024;-28
2022/07/28 01:30:42;;;;;;;5.47;3.00;;;;;;;31.04;39.38;96430.91;5093638;28;20039;-28
2022/07/28 01:33:20;;;;;;;3.80;2.45;;;;;;;31.03;40.57;96429.41;5093378;28;20423;-28
2022/07/28 01:36:00;;;;;;;3.92;2.75;;;;;;;31.12;39.51;96432.97;5093095;28;20020;-28
2022/07/28 01:38:26;;;;;;;3.80;2.80;;;;;;;31.03;38.88;96434.28;5093391;28;20508;-30
2022/07/28 01:40:54;;;;;;;6.30;2.83;;;;;;;31.10;39.08;96438.41;5093118;28;20497;-29
2022/07/28 01:43:30;;;;;;;4.78;2.85;;;;;;;31.04;39.55;96425.31;5093220;28;20559;-28
2022/07/28 01:45:58;;;;;;;3.75;2.80;;;;;;;31.02;39.44;96430.75;5092031;28;20478;-28
2022/07/28 01:48:25;;;;;;;4.47;3.05;;;;;;;31.03;39.25;96431.50;5093255;28;20116;-28
2022/07/28 01:50:53;;;;;;;3.35;2.70;;;;;;;31.02;38.90;96433.53;5092957;28;20442;-28
2022/07/28 01:53:20;;;;;;;3.85;2.75;;;;;;;31.00;38.61;96424.97;5093197;28;20504;-28
2022/07/28 01:55:48;;;;;;;3.90;2.58;;;;;;;31.07;39.03;96423.44;5092945;28;20035;-28
2022/07/28 01:58:15;;;;;;;3.38;2.92;;;;;;;31.01;38.63;96425.72;5093001;28;20478;-30
2022/07/28 02:00:41;;;;;;;3.80;2.90;;;;;;;31.00;38.94;96433.38;5092760;28;20466;-28
2022/07/28 02:03:09;;;;;;;3.47;2.60;;;;;;;31.03;38.84;96428.69;5092901;28;20059;-28
2022/07/28 02:05:36;;;;;;;5.63;2.63;;;;;;;31.05;39.12;96426.78;5092976;28;20024;-28
2022/07/28 02:08:04;;;;;;;5.60;2.60;;;;;;;31.02;38.67;96422.34;5092898;28;20024;-29
2022/07/28 02:10:31;;;;;;;4.35;2.67;;;;;;;31.05;38.52;96428.84;5092450;28;20047;-29
2022/07/28 02:12:59;;;;;;;3.83;2.78;;;;;;;31.00;38.63;96424.22;5092770;28;20027;-28
2022/07/28 02:15:26;;;;;;;3.40;2.55;;;;;;;31.03;38.98;96418.22;5094111;28;20062;-28
2022/07/28 02:17:54;;;;;;;3.85;2.88;;;;;;;30.96;38.92;96419.00;5096641;28;20071;-28
2022/07/28 02:20:20;;;;;;;4.63;2.65;;;;;;;31.03;38.54;96418.22;5096367;28;20103;-28
2022/07/28 02:22:47;;;;;;;4.80;2.70;;;;;;;30.97;38.70;96423.28;5096083;28;20028;-29
2022/07/28 02:25:13;;;;;;;4.95;2.78;;;;;;;30.98;39.13;96424.78;5096242;28;20020;-28
2022/07/28 02:27:46;;;;;;;4.55;2.80;;;;;;;30.95;38.61;96423.09;5094936;28;20035;-28
2022/07/28 02:30:15;;;;;;;2.90;2.30;;;;;;;30.91;39.33;96422.72;5096194;28;20027;-28
2022/07/28 02:32:55;;;;;;;5.40;2.92;;;;;;;30.91;39.01;96419.91;5096003;28;20074;-29
2022/07/28 02:35:40;;;;;;;3.50;2.80;;;;;;;30.96;39.69;96413.38;5096230;28;20028;-28
2022/07/28 02:38:11;;;;;;;3.35;2.83;;;;;;;30.96;39.36;96419.00;5095980;28;20095;-28
2022/07/28 02:40:39;;;;;;;3.83;2.75;;;;;;;30.97;39.23;96420.47;5094725;28;20056;-28
2022/07/28 02:43:09;;;;;;;3.28;2.78;;;;;;;30.94;39.80;96418.81;5095971;28;20031;-28
2022/07/28 02:45:38;;;;;;;3.05;2.50;;;;;;;30.94;39.42;96416.00;5095810;28;20024;-28
2022/07/28 02:48:09;;;;;;;7.05;2.60;;;;;;;30.89;39.49;96414.16;5095743;28;20113;-28
2022/07/28 02:50:35;;;;;;;5.03;2.58;;;;;;;30.94;39.83;96416.00;5095769;28;20032;-30
2022/07/28 02:53:03;;;;;;;4.57;2.80;;;;;;;30.91;40.11;96408.72;5094054;28;20387;-29
2022/07/28 02:55:30;;;;;;;7.30;2.90;;;;;;;30.92;39.66;96410.22;5095863;28;20486;-28
2022/07/28 02:57:57;;;;;;;5.72;2.70;;;;;;;30.91;39.86;96410.81;5095706;28;20028;-28
2022/07/28 03:00:24;;;;;;;4.80;2.60;;;;;;;30.91;39.72;96405.91;5095981;28;20016;-28
2022/07/28 03:02:51;;;;;;;3.78;2.90;;;;;;;30.93;40.21;96414.50;5095631;28;20024;-28
2022/07/28 03:05:17;;;;;;;4.15;2.65;;;;;;;30.93;39.74;96420.09;5095902;28;20486;-28
2022/07/28 03:07:43;;;;;;;3.47;2.97;;;;;;;30.91;40.01;96411.53;5094832;28;20032;-28
2022/07/28 03:10:29;;;;;;;5.70;2.90;;;;;;;30.90;40.30;96410.06;5094043;28;20428;-28
2022/07/28 03:12:55;;;;;;;5.03;2.92;;;;;;;30.88;40.42;96412.66;5095151;28;20036;-28
2022/07/28 03:15:23;;;;;;;3.80;2.92;;;;;;;30.90;39.98;96420.50;5095240;28;20028;-28
2022/07/28 03:18:06;;;;;;;4.07;2.63;;;;;;;30.89;40.10;96413.41;5095235;28;20020;-29
2022/07/28 03:20:32;;;;;;;4.28;3.30;;;;;;;30.84;40.49;96417.91;5095341;28;20119;-28
2022/07/28 03:22:58;;;;;;;4.55;2.80;;;;;;;30.88;40.46;96406.31;5095232;28;20024;-28
2022/07/28 03:25:42;;;;;;;5.10;3.15;;;;;;;30.88;40.76;96411.94;5095071;28;20028;-28
2022/07/28 03:28:13;;;;;;;4.13;2.85;;;;;;;30.87;40.17;96404.84;5094637;28;20091;-29
2022/07/28 03:30:41;;;;;;;3.67;2.85;;;;;;;30.87;40.74;96416.03;5094820;28;20034;-28
2022/07/28 03:33:07;;;;;;;4.05;2.92;;;;;;;30.85;40.31;96413.03;5095043;28;20099;-28
2022/07/28 03:35:37;;;;;;;3.80;2.58;;;;;;;30.84;40.64;96409.50;5094796;28;20020;-29
2022/07/28 03:38:24;;;;;;;6.95;2.75;;;;;;;30.83;40.81;96410.81;5094886;28;20086;-28
2022/07/28 03:40:53;;;;;;;5.10;3.17;;;;;;;30.84;40.35;96411.56;5094768;28;20459;-28
2022/07/28 03:43:21;;;;;;;4.57;2.60;;;;;;;30.85;40.26;96421.44;5094770;28;20060;-29
2022/07/28 03:45:47;;;;;;;4.30;2.90;;;;;;;30.83;40.74;96410.81;5094764;28;20480;-28
2022/07/28 03:48:13;;;;;;;5.32;3.00;;;;;;;30.81;40.77;96412.66;5094709;28;20069;-28
2022/07/28 03:50:38;;;;;;;3.78;2.90;;;;;;;30.83;40.67;96416.41;5094658;28;20024;-28
2022/07/28 03:53:12;;;;;;;4.40;2.95;;;;;;;30.79;40.86;96416.03;5094634;28;20520;-28
2022/07/28 03:55:37;;;;;;;4.53;3.10;;;;;;;30.79;40.69;96407.63;5094396;28;20020;-28
2022/07/28 03:58:03;;;;;;;3.45;2.65;;;;;;;30.78;40.83;96414.56;5094695;28;20465;-28
2022/07/28 04:00:28;;;;;;;5.22;2.97;;;;;;;30.78;40.34;96416.63;5094339;28;20031;-30
2022/07/28 04:02:54;;;;;;;5.75;3.55;;;;;;;30.78;40.79;96408.97;5093025;28;20031;-28
2022/07/28 04:05:19;;;;;;;6.07;2.97;;;;;;;30.78;40.52;96413.81;5094453;28;20031;-28
2022/07/28 04:07:45;;;;;;;4.80;2.88;;;;;;;30.77;40.64;96407.47;5094172;28;20020;-29
2022/07/28 04:10:13;;;;;;;3.75;3.03;;;;;;;30.74;40.46;96408.59;5094221;28;20040;-28
2022/07/28 04:12:51;;;;;;;4.53;2.88;;;;;;;30.79;40.46;96412.47;5094474;28;20035;-28
2022/07/28 04:15:17;;;;;;;3.42;3.10;;;;;;;30.70;40.81;96414.56;5094218;28;20067;-28
2022/07/28 04:17:43;;;;;;;4.15;2.63;;;;;;;30.73;41.05;96421.09;5093949;28;20024;-27
2022/07/28 04:20:10;;;;;;;5.32;3.17;;;;;;;30.72;41.11;96419.59;5094130;28;20069;-28
2022/07/28 04:22:36;;;;;;;4.03;2.60;;;;;;;30.76;40.39;96419.97;5093916;28;20031;-28
2022/07/28 04:25:02;;;;;;;5.32;3.22;;;;;;;30.68;40.56;96419.22;5093930;28;20020;-28
2022/07/28 04:27:27;;;;;;;6.30;3.15;;;;;;;30.75;40.60;96415.69;5093878;28;20020;-28
2022/07/28 04:29:53;;;;;;;6.47;2.83;;;;;;;30.73;40.41;96429.50;5093869;28;20386;-29
2022/07/28 04:32:18;;;;;;;5.45;3.25;;;;;;;30.68;40.59;96424.81;5094055;28;20019;-28
2022/07/28 04:34:44;;;;;;;4.22;2.80;;;;;;;30.71;40.74;96432.84;5094220;28;20262;-28
2022/07/28 04:37:09;;;;;;;4.25;3.08;;;;;;;30.69;40.83;96440.31;5093595;28;20036;-28
2022/07/28 04:39:34;;;;;;;4.63;2.80;;;;;;;30.69;40.86;96443.13;5093557;28;20023;-28
2022/07/28 04:42:00;;;;;;;4.22;3.05;;;;;;;30.70;40.82;96441.81;5093846;28;20023;-28
2022/07/28 04:44:26;;;;;;;5.35;3.33;;;;;;;30.71;40.13;96449.66;5093551;28;20024;-29
2022/07/28 04:46:51;;;;;;;5.00;3.05;;;;;;;30.68;40.71;96447.22;5093883;28;20020;-28
2022/07/28 04:49:17;;;;;;;4.20;2.83;;;;;;;30.69;40.60;96446.66;5093697;28;20051;-28
2022/07/28 04:51:48;;;;;;;4.93;3.20;;;;;;;30.70;40.20;96444.59;5093362;28;20069;-28
2022/07/28 04:54:14;;;;;;;5.03;3.20;;;;;;;30.66;40.75;96452.66;5093357;28;20103;-28
2022/07/28 04:56:39;;;;;;;4.85;2.50;;;;;;;30.64;40.17;96452.47;5093576;28;20019;-28
2022/07/28 04:59:05;;;;;;;3.22;2.60;;;;;;;30.68;40.23;96447.97;5093497;28;20504;-28
2022/07/28 05:01:30;;;;;;;4.95;2.97;;;;;;;30.62;40.10;96443.88;5093564;28;20020;-28
2022/07/28 05:03:56;;;;;;;6.85;2.95;;;;;;;30.66;40.58;96452.66;5093178;28;20052;-28
2022/07/28 05:06:21;;;;;;;3.70;2.85;;;;;;;30.65;40.60;96451.16;5093451;28;20415;-28
2022/07/28 05:08:48;;;;;;;5.88;3.35;;;;;;;30.65;40.41;96445.56;5093506;28;20111;-28
2022/07/28 05:11:14;;;;;;;5.38;2.97;;;;;;;30.65;40.25;96446.31;5093021;28;20040;-28
2022/07/28 05:13:40;;;;;;;4.90;3.22;;;;;;;30.61;40.22;96447.97;5093588;28;20027;-28
2022/07/28 05:16:05;;;;;;;4.90;2.78;;;;;;;30.59;40.28;96447.78;5093206;28;20035;-28
2022/07/28 05:18:31;;;;;;;4.43;2.60;;;;;;;30.61;39.95;96445.94;5093233;28;20023;-28
2022/07/28 05:20:56;;;;;;;5.80;3.13;;;;;;;30.62;39.98;96446.69;5093188;28;20101;-28
2022/07/28 05:23:22;;;;;;;4.82;3.00;;;;;;;30.63;40.08;96448.16;5093260;28;20415;-29
2022/07/28 05:25:47;;;;;;;4.25;2.83;;;;;;;30.61;39.87;96456.38;5093110;28;20526;-28
2022/07/28 05:28:13;;;;;;;5.97;3.10;;;;;;;30.57;39.92;96453.19;5093208;28;20455;-28
2022/07/28 05:30:38;;;;;;;4.80;3.10;;;;;;;30.60;39.88;96449.28;5093280;28;20016;-28
2022/07/28 05:33:04;;;;;;;3.47;2.38;;;;;;;30.62;39.90;96455.81;5093254;28;20024;-28
2022/07/28 05:35:29;;;;;;;3.72;2.50;;;;;;;30.61;40.25;96453.59;5093086;28;20032;-28
2022/07/28 05:37:54;;;;;;;5.40;3.30;;;;;;;30.63;40.21;96462.91;5093251;28;20107;-28
2022/07/28 05:40:20;;;;;;;7.50;3.22;;;;;;;30.61;40.27;96456.38;5093126;28;20038;-28
2022/07/28 05:42:49;;;;;;;6.88;3.35;;;;;;;30.58;40.34;96452.66;5093159;28;20024;-27
2022/07/28 05:45:15;;;;;;;4.30;3.08;;;;;;;30.56;40.03;96465.69;5093052;28;20027;-29
2022/07/28 05:47:48;;;;;;;6.70;2.97;;;;;;;30.58;39.75;96460.28;5092946;28;20024;-28
2022/07/28 05:50:15;;;;;;;7.28;3.33;;;;;;;30.60;39.68;96452.84;5096111;28;20335;-28
2022/07/28 05:52:41;;;;;;;3.88;2.83;;;;;;;30.56;40.22;96460.09;5081081;28;20108;-29
2022/07/28 05:55:07;;;;;;;5.07;3.28;;;;;;;30.52;40.24;96454.88;5095007;28;20093;-28
2022/07/28 05:57:33;;;;;;;4.60;2.90;;;;;;;30.60;40.26;96463.28;5086890;28;20116;-28
2022/07/28 05:59:59;;;;;;;7.30;3.10;;;;;;;30.56;39.92;96460.84;5074590;28;20503;-28
2022/07/28 06:02:24;;;;;;;5.90;3.17;;;;;;;30.58;39.61;96469.44;5074367;28;20025;-29
2022/07/28 06:04:50;;;;;;;3.83;3.00;;;;;;;30.60;39.94;96469.63;5074304;28;20037;-29
2022/07/28 06:07:15;;;;;;;6.55;2.75;;;;;;;30.54;39.66;96473.94;5072526;28;20031;-29
2022/07/28 06:09:40;;;;;;;4.45;2.83;;;;;;;30.52;40.03;96474.47;5081369;28;20397;-29
2022/07/28 06:12:06;;;;;;;6.28;3.00;;;;;;;30.56;39.85;96476.91;5094685;28;20054;-29
2022/07/28 06:14:32;;;;;;;5.70;3.22;;;;;;;30.55;39.59;96464.22;5094109;28;20024;-28
2022/07/28 06:16:57;;;;;;;4.82;3.50;;;;;;;30.51;39.49;96478.56;5094671;28;20016;-28
2022/07/28 06:19:23;;;;;;;4.80;2.78;;;;;;;30.51;39.72;96475.03;5094514;28;20503;-28
2022/07/28 06:21:51;;;;;;;3.42;2.72;;;;;;;30.54;39.99;96479.53;5094525;28;20027;-28
2022/07/28 06:24:17;;;;;;;4.85;3.05;;;;;;;30.54;39.63;96490.72;5094286;28;20482;-28
2022/07/28 06:26:42;;;;;;;6.35;2.90;;;;;;;30.52;39.61;96488.47;5094020;28;20060;-28
2022/07/28 06:29:08;;;;;;;5.53;2.95;;;;;;;30.51;39.78;96491.81;5094227;28;20035;-28
2022/07/28 06:31:34;;;;;;;4.22;3.05;;;;;;;30.55;39.79;96483.78;5094271;28;20062;-28
2022/07/28 10:43:41;;;;;;;5.90;3.70;;;;;;;30.29;40.00;96522.00;3971493;28;22930;-31
2022/07/28 10:46:06;;;;;;;7.22;3.72;;;;;;;30.32;39.74;96520.88;5075573;28;20075;-29
2022/07/28 10:48:34;;;;;;;4.43;3.20;;;;;;;30.31;40.22;96524.97;5075641;28;20060;-28
2022/07/28 10:51:00;;;;;;;4.45;3.50;;;;;;;30.32;40.23;96523.69;5075763;28;20025;-28
2022/07/28 10:53:28;;;;;;;5.72;3.50;;;;;;;30.39;40.13;96513.81;5075561;28;20024;-28
2022/07/28 10:56:01;;;;;;;6.68;3.67;;;;;;;30.30;40.22;96508.75;5075793;28;20382;-29
2022/07/28 10:58:35;;;;;;;5.57;3.30;;;;;;;30.28;40.16;96503.72;5075594;28;20033;-28
2022/07/28 11:01:01;;;;;;;8.02;3.40;;;;;;;30.24;40.02;96508.94;5075436;28;20478;-28
2022/07/28 11:03:41;;;;;;;5.85;3.53;;;;;;;30.24;40.11;96506.16;5075608;28;20031;-28
2022/07/28 11:06:26;;;;;;;5.45;3.30;;;;;;;30.31;39.86;96501.84;5075400;28;20025;-27
2022/07/28 11:08:56;;;;;;;8.50;3.88;;;;;;;30.30;39.35;96512.28;5075389;28;20103;-28
2022/07/28 11:11:51;;;;;;;7.70;3.35;;;;;;;30.26;39.63;96500.75;5075218;28;20028;-28
2022/07/28 11:14:23;;;;;;;5.63;3.60;;;;;;;30.31;39.36;96502.59;5075325;28;20112;-28
2022/07/28 11:16:49;;;;;;;8.82;3.85;;;;;;;30.30;39.22;96501.09;5075338;28;20020;-28
2022/07/28 11:19:17;;;;;;;6.57;3.63;;;;;;;30.28;39.55;96495.34;5074924;28;20059;-28
2022/07/28 11:22:14;;;;;;;4.15;3.53;;;;;;;30.38;39.14;96503.94;5075053;28;20077;-28
2022/07/28 11:25:00;;;;;;;4.82;2.90;;;;;;;30.42;39.31;96500.75;5074923;28;20025;-29
2022/07/28 11:27:53;;;;;;;5.53;3.00;;;;;;;30.38;39.32;96503.19;5074838;28;20205;-29
2022/07/28 11:30:19;;;;;;;5.00;3.35;;;;;;;30.29;38.88;96498.88;5075038;28;20458;-28
2022/07/28 11:32:54;;;;;;;4.85;3.22;;;;;;;30.31;38.98;96494.19;5074794;28;20020;-29
2022/07/28 11:35:25;;;;;;;4.70;3.35;;;;;;;30.26;39.15;96489.56;5074810;28;20028;-28
2022/07/28 11:37:59;;;;;;;5.78;3.40;;;;;;;30.32;38.68;96489.34;5074904;28;20069;-28
2022/07/28 11:40:38;;;;;;;6.05;3.22;;;;;;;30.26;38.76;96478.34;5074778;28;20025;-29
2022/07/28 11:46:10;;;;;;;6.68;3.70;;;;;;;30.29;39.13;96482.81;5074197;28;20075;-28
2022/07/28 11:48:37;;;;;;;3.80;3.38;;;;;;;30.40;38.34;96486.59;5071165;28;20449;-28
2022/07/28 11:51:02;;;;;;;5.60;3.60;;;;;;;30.32;38.73;96492.91;5074420;28;20054;-29
2022/07/28 11:53:34;;;;;;;5.30;3.53;;;;;;;30.36;38.41;96482.09;5074417;28;20035;-28
2022/07/28 11:56:04;;;;;;;7.20;4.03;;;;;;;30.38;38.74;96481.53;5074576;28;20543;-28
2022/07/28 11:58:30;;;;;;;6.38;3.42;;;;;;;30.39;38.83;96488.63;5074595;28;20040;-28
2022/07/28 12:01:18;;;;;;;6.10;3.53;;;;;;;30.39;38.77;96479.50;5074167;28;20070;-29
2022/07/28 12:03:45;;;;;;;6.05;3.60;;;;;;;30.43;38.33;96474.25;5074089;28;20032;-27
2022/07/28 12:06:12;;;;;;;7.05;3.17;;;;;;;30.43;38.07;96475.00;5074066;28;20024;-29
2022/07/28 12:09:06;;;;;;;7.40;3.38;;;;;;;30.51;38.11;96483.41;5073982;28;20020;-28
2022/07/28 12:11:37;;;;;;;5.45;3.60;;;;;;;30.45;37.64;96466.78;5074215;28;20025;-28
2022/07/28 12:14:07;;;;;;;4.35;2.78;;;;;;;30.40;37.66;96470.53;5074124;28;20024;-28
2022/07/28 12:16:35;;;;;;;4.00;3.10;;;;;;;30.46;38.29;96467.53;5073815;28;20394;-28
2022/07/28 12:19:03;;;;;;;6.53;3.17;;;;;;;30.43;38.25;96463.06;5074073;28;20075;-28
2022/07/28 12:21:42;;;;;;;7.28;3.60;;;;;;;30.40;38.00;96458.59;5074069;28;20052;-28
2022/07/28 12:24:11;;;;;;;3.95;3.25;;;;;;;30.40;38.57;96464.94;5073759;28;20025;-28
2022/07/28 12:26:38;;;;;;;3.78;3.10;;;;;;;30.42;38.43;96464.34;5074029;28;20025;-29
2022/07/28 12:29:04;;;;;;;6.30;3.50;;;;;;;30.38;38.41;96464.00;5073881;28;20028;-29
2022/07/28 12:31:36;;;;;;;8.80;3.28;;;;;;;30.37;38.18;96454.88;5073648;28;20098;-28
2022/07/28 12:34:05;;;;;;;8.93;3.60;;;;;;;30.37;38.60;96463.25;5073582;28;20021;-28
2022/07/28 12:36:32;;;;;;;7.63;4.07;;;;;;;30.24;39.88;96458.59;5073517;28;20030;-28
2022/07/28 12:39:00;;;;;;;8.23;4.20;;;;;;;30.22;39.81;96463.25;5073620;28;20029;-28
2022/07/28 12:41:37;;;;;;;7.80;3.15;;;;;;;30.35;40.37;96463.06;5073543;28;20500;-28
2022/07/28 12:44:04;;;;;;;6.50;3.50;;;;;;;30.38;40.88;96447.22;5073291;28;20017;-28
2022/07/28 12:46:31;;;;;;;7.55;3.88;;;;;;;30.46;40.81;96462.69;5073573;28;20024;-30
2022/07/28 12:48:58;;;;;;;5.18;3.47;;;;;;;30.43;41.18;96465.84;5073347;28;20032;-28
2022/07/28 12:51:44;;;;;;;6.95;3.70;;;;;;;30.42;41.24;96467.16;5072438;28;20032;-29
2022/07/28 12:54:12;;;;;;;43.50;5.90;;;;;;;31.73;40.62;96453.88;5073346;28;20016;-29
2022/07/28 12:56:44;;;;;;;19.30;4.53;;;;;;;32.62;38.32;96465.66;5073642;28;20482;-29
2022/07/28 12:59:11;;;;;;;;;;;;;;;32.94;37.87;96456.38;5073235;28;20020;-29
2022/07/28 13:01:56;;;;;;;16.00;4.43;;;;;;;32.96;37.93;96460.09;5073501;28;20271;-29
2022/07/28 13:04:41;;;;;;;19.27;4.20;;;;;;;32.98;37.76;96451.09;5073113;28;20021;-29
2022/07/28 13:07:24;;;;;;;11.07;4.22;;;;;;;32.84;38.41;96456.28;5073199;28;20090;-29
2022/07/28 13:10:04;;;;;;;19.02;4.18;;;;;;;32.75;38.59;96449.28;5073327;28;20467;-29
2022/07/28 13:12:30;;;;;;;10.80;3.80;;;;;;;32.77;38.83;96448.66;5073346;28;20036;-29
2022/07/28 13:15:01;;;;;;;11.25;4.15;;;;;;;32.74;38.96;96455.47;5073249;28;20099;-29
2022/07/28 13:17:31;;;;;;;9.38;3.75;;;;;;;32.71;39.25;96448.16;5073279;28;20033;-30
2022/07/28 13:20:11;;;;;;;13.65;3.45;;;;;;;32.67;39.17;96450.59;5073313;28;20032;-29
2022/07/28 13:22:38;;;;;;;9.35;3.97;;;;;;;32.62;39.05;96449.53;5073306;28;20020;-28
2022/07/28 13:25:05;;;;;;;6.35;4.13;;;;;;;32.56;39.59;96456.69;5071757;28;20020;-29
2022/07/28 13:27:31;;;;;;;8.55;3.35;;;;;;;32.48;39.94;96454.72;5073020;28;20032;-29
2022/07/28 13:29:57;;;;;;;5.82;3.60;;;;;;;32.41;40.04;96461.13;5073074;28;20463;-29
2022/07/28 13:32:23;;;;;;;7.18;3.50;;;;;;;32.44;39.89;96462.03;5073007;28;20040;-29
2022/07/28 13:34:48;;;;;;;6.68;3.30;;;;;;;32.35;40.33;96468.28;5073025;28;20588;-28
2022/07/28 13:37:14;;;;;;;8.55;3.95;;;;;;;32.32;40.30;96461.00;5071712;28;20133;-30
2022/07/28 13:39:40;;;;;;;9.52;3.63;;;;;;;32.32;40.31;96461.00;5072881;28;20027;-29
2022/07/28 13:42:06;;;;;;;6.38;3.33;;;;;;;32.25;40.65;96465.38;5072916;28;20024;-28
2022/07/28 13:44:33;;;;;;;5.93;3.25;;;;;;;32.18;41.01;96459.75;5072544;28;20052;-29
2022/07/28 13:47:00;;;;;;;8.60;3.47;;;;;;;32.17;41.44;96461.09;5072906;28;20097;-29
2022/07/28 13:49:27;;;;;;;7.40;3.60;;;;;;;32.13;41.38;96462.25;5072826;28;20024;-29
2022/07/28 13:51:52;;;;;;;8.48;3.75;;;;;;;32.13;41.25;96453.81;5072959;28;20080;-28
2022/07/28 13:54:19;;;;;;;4.65;2.97;;;;;;;32.12;41.10;96449.53;5072802;28;20157;-29
2022/07/28 13:56:45;;;;;;;6.03;3.00;;;;;;;32.13;41.59;96462.25;5072684;28;20027;-29
2022/07/28 13:59:12;;;;;;;7.47;3.10;;;;;;;32.11;41.38;96464.13;5072750;28;20020;-29
2022/07/28 14:01:39;;;;;;;4.68;3.35;;;;;;;32.10;41.58;96471.78;5072703;28;20068;-29
2022/07/28 14:04:06;;;;;;;5.25;3.08;;;;;;;32.10;41.45;96459.81;5071280;28;20108;-29
2022/07/28 14:06:31;;;;;;;6.38;3.42;;;;;;;32.00;42.10;96458.97;5072649;28;20024;-29
2022/07/28 14:08:57;;;;;;;5.32;2.92;;;;;;;31.96;42.01;96442.53;5072844;28;20110;-28
2022/07/28 14:11:22;;;;;;;8.75;3.25;;;;;;;31.95;42.02;96451.50;5072682;28;20059;-28
2022/07/28 14:13:50;;;;;;;5.15;3.10;;;;;;;31.91;42.13;96456.75;5076207;28;20040;-29
2022/07/28 14:16:20;;;;;;;7.88;2.97;;;;;;;31.92;42.28;96467.41;5076126;28;20021;-29
2022/07/28 14:18:46;;;;;;;6.03;3.13;;;;;;;31.84;42.59;96466.72;5076303;28;20020;-29
2022/07/28 14:21:12;;;;;;;5.07;3.20;;;;;;;31.81;42.39;96458.69;5076272;28;20029;-29
2022/07/28 14:23:37;;;;;;;5.88;3.15;;;;;;;31.77;42.68;96459.09;5076154;28;20029;-28
2022/07/28 14:26:03;;;;;;;4.78;3.13;;;;;;;31.84;42.50;96455.50;5076009;28;20486;-28
2022/07/28 14:28:28;;;;;;;6.15;3.05;;;;;;;31.76;42.33;96457.59;5076011;28;20031;-29
2022/07/28 14:30:54;;;;;;;4.43;2.80;;;;;;;31.80;42.58;96462.78;5074711;28;20077;-29
2022/07/28 14:33:19;;;;;;;6.80;2.78;;;;;;;31.76;41.94;96463.97;5076082;28;20115;-29
2022/07/28 14:35:45;;;;;;;7.90;3.20;;;;;;;31.67;42.70;96466.59;5075951;28;20082;-29
2022/07/28 14:38:10;;;;;;;3.33;2.60;;;;;;;31.69;42.50;96464.72;5075968;28;20360;-29
2022/07/28 14:40:36;;;;;;;6.95;3.17;;;;;;;31.72;42.28;96466.41;5075908;28;20122;-29
2022/07/28 14:43:05;;;;;;;5.00;2.90;;;;;;;31.72;42.24;96472.00;5078286;28;20099;-29
2022/07/28 14:45:31;;;;;;;4.95;2.72;;;;;;;31.66;42.24;96470.72;5083391;28;20047;-28
2022/07/28 14:47:57;;;;;;;4.60;2.65;;;;;;;31.64;42.13;96465.69;5094312;28;20074;-30
2022/07/28 14:50:23;;;;;;;7.28;2.92;;;;;;;31.70;42.39;96462.66;5095911;28;20551;-29
2022/07/28 14:52:49;;;;;;;6.47;2.70;;;;;;;31.72;42.21;96483.22;5095890;28;20016;-29
2022/07/28 14:55:14;;;;;;;6.15;2.70;;;;;;;31.69;42.14;96475.19;5095857;28;20042;-29
2022/07/28 14:57:41;;;;;;;4.72;2.88;;;;;;;31.71;42.17;96478.94;5095728;28;20489;-29
2022/07/28 15:00:12;;;;;;;6.72;3.45;;;;;;;31.67;42.32;96480.63;5095510;28;20026;-29
2022/07/28 15:02:38;;;;;;;6.60;3.53;;;;;;;31.65;42.04;96483.25;5095664;28;20051;-28
2022/07/28 15:05:05;;;;;;;7.90;4.07;;;;;;;31.58;42.36;96481.19;5095151;28;20067;-29
2022/07/28 15:07:31;;;;;;;10.10;3.95;;;;;;;31.56;42.05;96475.41;5095327;28;20062;-29
2022/07/28 15:09:56;;;;;;;6.63;3.15;;;;;;;31.57;42.17;96474.84;5094035;28;20024;-29
2022/07/28 15:12:22;;;;;;;7.90;3.50;;;;;;;31.54;42.03;96475.97;5095204;28;20024;-29
2022/07/28 15:14:48;;;;;;;7.65;4.10;;;;;;;31.52;41.85;96461.81;5095213;28;20040;-29
2022/07/28 15:17:13;;;;;;;5.70;3.30;;;;;;;31.48;41.64;96455.84;5094760;28;20382;-28
2022/07/28 15:19:39;;;;;;;5.57;3.67;;;;;;;31.49;41.83;96450.97;5095266;28;20107;-29
2022/07/28 15:22:05;;;;;;;8.57;3.47;;;;;;;31.43;41.89;96467.97;5094683;28;20367;-30
2022/07/28 15:24:32;;;;;;;8.80;4.05;;;;;;;31.41;42.15;96450.97;5095160;28;20389;-29
2022/07/28 15:27:01;;;;;;;5.13;2.97;;;;;;;31.40;41.69;96455.84;5095133;28;20032;-29
2022/07/28 15:29:28;;;;;;;6.43;3.25;;;;;;;31.46;41.85;96457.69;5095130;28;20084;-30
2022/07/28 15:31:54;;;;;;;7.55;3.42;;;;;;;31.42;42.01;96452.47;5094890;28;20028;-29
2022/07/28 15:34:20;;;;;;;5.93;3.40;;;;;;;31.41;42.17;96456.59;5094611;28;20447;-29
2022/07/28 15:36:46;;;;;;;6.50;3.15;;;;;;;31.39;41.77;96459.22;5095024;28;20028;-29
2022/07/28 15:39:15;;;;;;;4.75;2.65;;;;;;;31.43;42.05;96465.94;5094868;28;20084;-29
2022/07/28 15:41:42;;;;;;;7.05;3.28;;;;;;;31.35;41.67;96464.47;5094981;28;20114;-29
2022/07/28 15:44:09;;;;;;;5.30;3.10;;;;;;;31.34;42.47;96486.13;5094466;28;20142;-29
2022/07/28 15:46:34;;;;;;;8.60;3.33;;;;;;;31.37;41.60;96473.06;5094124;28;20043;-29
2022/07/28 15:49:04;;;;;;;5.07;2.72;;;;;;;31.35;41.87;96489.69;5094228;28;20020;-29
2022/07/28 15:51:30;;;;;;;7.07;3.13;;;;;;;31.35;42.26;96489.69;5095008;28;20099;-28
2022/07/28 15:53:55;;;;;;;6.05;2.92;;;;;;;31.27;42.43;96472.91;5093241;28;20419;-28